Springfield, Tennessee
Current Conditions -  °F | °C
As of 11:53 AM on Thursday 30 Oct 2014 (Local Time) from KBNA Reporting Station
Clear Clear  
Wind Chill: 58°   Ceiling: Unl
Heat Index: 58°   Visibility: 10mi
Dew Point: 38°   Wind: 5mph
Humidity: 47%   Direction: 90°E
Pressure: 30.15"   Gusts: NA
Location:  36.51°N, 86.88°W
Report Text: KBNA 301653Z 09004KT 10SM CLR 14/03 A3015 RMK AO2 SLP208 T01440033
Loading
Personal Weather Stations






























Interactive Weather Map
Tropical Storm Tracking
New forecast layout! Learn more

10-Day Weather Forecast

Advertisements
Track Severe Weather on mobile